Springville, Tennessee
Current Conditions -  °F | °C
As of 2:35 PM on Saturday 25 Oct 2014 (Local Time) from KPHT Reporting Station
Clear Clear  
Wind Chill: 77°   Ceiling: Unl
Heat Index: 79°   Visibility: 10mi
Dew Point: 63°   Wind: 7mph
Humidity: 61%   Direction: 250°WSW
Pressure: 30.01"   Gusts: NA
Location:  36.25°N, 88.15°W
Report Text: KPHT 251935Z AUTO 25006KT 10SM CLR 25/17 A3001 RMK
Loading
Personal Weather Stations






























Interactive Weather Map
Tropical Storm Tracking
New forecast layout! Learn more

10-Day Weather Forecast

Advertisements
Track Severe Weather on mobile